Aeroporto :
LOGIN :

Iscrizione | Disclaimer

   EN    FR    IT 

 










Sommario :    VFR   VFR Marginale   IFR   IFR Intensivo   IFR Molto Intensivo
Visibilità : 
Base nubi : 
>= 8 km
>= 3000ft
5 / 8 km
1000 / 3000 ft
1500m / 5 km
500 / 1000 ft
800 / 1500m
200 / 500 ft
< 800m
< 200 ft
Simboli :   Temporali  Nebbia  Neve Forte  Precipitazioni Forti  Vento > 20 kt
SIGMETs :   Varie  Temporali  Ghiacco  Turbolenza  Onda orograficha  Ceneri Vulcaniche







- Altitudine del aeroporto : 170 ft
- Codice IATA : BGO


ENBR - Bergen , Flesland

ULTIMO METAR :
  • 160350Z 35006KT 9999 FEW008 10/09 Q1015 RMK WIND 1200FT 34012KT

METARs OBSOLETI :
  • 160250Z 34005KT 9999 FEW009 10/09 Q1015 RMK WIND 1200FT 33012KT
  • 160150Z 35005KT 9999 FEW008 10/09 Q1015 RMK WIND 1200FT 34012KT
  • 160050Z 33007KT 9999 FEW007 11/09 Q1015 RMK WIND 1200FT 34012KT

TAF TAF ENBR
Valido dal 16 a 00 ore il 17 a 00 ore UTC


1600/1624 33012KT 9999 FEW012 SCT030
PROB40 1600/1606 BKN008
TEMPO 1600/1606 VRB05KT
PROB40 1622/1624 BKN008
Nessun NOTAM noto per questo aeroporto.



MetMap, La meteo Aeronautica in un colpo d'occhio ! - Copyright ORBIFLY Dicembre 2007 - Disclaimer

ORBIFLY MET'MAP TEAM :

Programmazione e sviluppo : Alexandra Zaïnal
Concezione e sviluppo : Baudouin d'Aumeries
Co-Programmazione e sviluppo : Marc-Olivier Méhu
Supporto tecnico e logistico : Manuel Goepfert
Aiuto per la traduzione : Arnaldo La Scala

Contatto : metmap@orbifly.com




FONTI E CREDITI :

   NOAA